createdAt,value
2016-12-22T00:00:02.599Z,0.48
2016-12-22T00:05:03.027Z,0.49
2016-12-22T00:10:02.383Z,0.49
2016-12-22T00:15:02.775Z,0.48
2016-12-22T00:20:02.288Z,0.49
2016-12-22T00:25:02.721Z,0.48
2016-12-22T00:30:03.114Z,0.48
2016-12-22T00:35:02.463Z,0.47
2016-12-22T00:40:02.841Z,0.46
2016-12-22T00:45:02.244Z,0.43
2016-12-22T00:50:02.681Z,0.4
2016-12-22T00:55:03.081Z,0.39
2016-12-22T01:00:02.485Z,0.38
2016-12-22T01:05:02.858Z,0.4
2016-12-22T01:10:02.222Z,0.44
2016-12-22T01:15:02.608Z,0.47
2016-12-22T01:20:03.110Z,0.48
2016-12-22T01:25:02.493Z,0.49
2016-12-22T01:30:02.892Z,0.48
2016-12-22T01:35:02.309Z,0.49
2016-12-22T01:40:02.702Z,0.51
2016-12-22T01:45:03.086Z,0.54
2016-12-22T01:50:02.459Z,0.59
2016-12-22T01:55:02.872Z,0.6
2016-12-22T02:00:02.287Z,0.63
2016-12-22T02:05:02.682Z,0.67
2016-12-22T02:10:03.066Z,0.69
2016-12-22T02:15:02.442Z,0.72
2016-12-22T02:20:02.944Z,0.74
2016-12-22T02:25:02.313Z,0.76
2016-12-22T02:30:02.700Z,0.77
2016-12-22T02:35:03.073Z,0.79
2016-12-22T02:40:02.465Z,0.8
2016-12-22T02:45:02.843Z,0.8
2016-12-22T02:50:02.269Z,0.82
2016-12-22T02:55:02.666Z,0.84
2016-12-22T03:00:03.053Z,0.87
2016-12-22T03:05:02.462Z,0.9
2016-12-22T03:10:02.876Z,0.92
2016-12-22T03:15:02.262Z,0.95
2016-12-22T03:20:02.738Z,0.96
2016-12-22T03:25:03.150Z,0.99
2016-12-22T03:30:02.512Z,1.02
2016-12-22T03:35:02.896Z,1.04
2016-12-22T03:40:02.293Z,1.06
2016-12-22T03:45:02.646Z,1.06
2016-12-22T03:50:03.015Z,1.08
2016-12-22T03:55:02.395Z,1.1
2016-12-22T04:00:02.794Z,1.11
2016-12-22T04:05:03.160Z,1.11
2016-12-22T04:10:02.526Z,1.09
2016-12-22T04:15:02.863Z,1.07
2016-12-22T04:20:02.359Z,1.05
2016-12-22T04:25:02.700Z,1.05
2016-12-22T04:30:03.113Z,1.03
2016-12-22T04:35:02.502Z,1.02
2016-12-22T04:40:02.913Z,1.02
2016-12-22T04:45:02.283Z,1.02
2016-12-22T04:50:02.637Z,1.02
2016-12-22T04:55:03.001Z,1.02
2016-12-22T05:00:02.364Z,1.02
2016-12-22T05:05:02.719Z,1.01
2016-12-22T05:10:03.072Z,1.01
2016-12-22T05:15:02.432Z,1.02
2016-12-22T05:20:02.896Z,1.01
2016-12-22T05:25:02.303Z,1.04
2016-12-22T05:30:02.648Z,1.03
2016-12-22T05:35:03.050Z,1.04
2016-12-22T05:40:04.259Z,1.05
2016-12-22T05:45:02.848Z,1.04
2016-12-22T05:50:03.061Z,1.04
2016-12-22T05:55:02.256Z,1.04
2016-12-22T06:00:02.504Z,1.07
2016-12-22T06:05:02.799Z,1.06
2016-12-22T06:10:03.070Z,1.07
2016-12-22T06:15:02.306Z,1.07
2016-12-22T06:20:02.667Z,1.07
2016-12-22T06:25:02.953Z,1.07
2016-12-22T06:30:02.229Z,1.1
2016-12-22T06:35:02.475Z,1.09
2016-12-22T06:40:02.704Z,1.09
2016-12-22T06:45:02.995Z,1.08
2016-12-22T06:50:02.268Z,1.08
2016-12-22T06:55:02.533Z,1.09
2016-12-22T07:00:02.949Z,1.07
2016-12-22T07:05:02.232Z,1.06
2016-12-22T07:10:02.685Z,1.04
2016-12-22T07:15:03.158Z,1.06
2016-12-22T07:20:03.061Z,1.04
2016-12-22T07:25:02.518Z,1.05
2016-12-22T07:30:02.955Z,1.06
2016-12-22T07:35:02.419Z,1.06
2016-12-22T07:40:02.916Z,1.06
2016-12-22T07:45:02.317Z,1.06
2016-12-22T07:50:02.720Z,1.08
2016-12-22T07:55:03.055Z,1.09
2016-12-22T08:00:02.483Z,1.07
2016-12-22T08:05:02.889Z,1.05
2016-12-22T08:10:02.306Z,1.04
2016-12-22T08:15:02.667Z,1.04
2016-12-22T08:20:03.159Z,1.05
2016-12-22T08:25:02.527Z,1.06
2016-12-22T08:30:02.927Z,1.08
2016-12-22T08:35:02.680Z,1.09
2016-12-22T08:40:03.084Z,1.12
2016-12-22T08:45:02.503Z,1.16
2016-12-22T08:50:02.899Z,1.17
2016-12-22T08:55:02.337Z,1.2
2016-12-22T09:00:02.765Z,1.2
2016-12-22T09:05:02.163Z,1.23
2016-12-22T09:10:02.533Z,1.26
2016-12-22T09:15:02.965Z,1.29
2016-12-22T09:20:02.459Z,1.32
2016-12-22T09:25:02.596Z,1.37
2016-12-22T09:30:02.996Z,1.41
2016-12-22T09:35:02.396Z,1.45
2016-12-22T09:40:02.801Z,1.51
2016-12-22T09:45:02.198Z,1.54
2016-12-22T09:50:02.657Z,1.56
2016-12-22T09:55:03.073Z,1.61
2016-12-22T10:00:02.516Z,1.62
2016-12-22T10:05:02.910Z,1.66
2016-12-22T10:10:02.325Z,1.69
2016-12-22T10:15:02.747Z,1.7
2016-12-22T10:20:02.268Z,1.68
2016-12-22T10:25:02.691Z,1.68
2016-12-22T10:30:03.096Z,1.7
2016-12-22T10:35:02.471Z,1.75
2016-12-22T10:40:02.887Z,1.84
2016-12-22T10:45:02.313Z,1.97
2016-12-22T10:50:02.751Z,2.03
2016-12-22T10:55:03.125Z,2.02
2016-12-22T11:00:02.574Z,2
2016-12-22T11:05:02.942Z,1.97
2016-12-22T11:10:02.387Z,1.96
2016-12-22T11:15:02.822Z,1.96
2016-12-22T11:20:02.313Z,1.98
2016-12-22T11:25:02.736Z,2
2016-12-22T11:30:03.151Z,2.07
2016-12-22T11:35:02.614Z,2.19
2016-12-22T11:40:03.011Z,2.27
2016-12-22T11:45:02.390Z,2.34
2016-12-22T11:50:02.777Z,2.36
2016-12-22T11:55:02.240Z,2.37
2016-12-22T12:00:02.651Z,2.34
2016-12-22T12:05:03.041Z,2.31
2016-12-22T12:10:02.407Z,2.29
2016-12-22T12:15:02.789Z,2.27
2016-12-22T12:20:02.292Z,2.28
2016-12-22T12:25:02.658Z,2.29
2016-12-22T12:30:03.105Z,2.32
2016-12-22T12:35:02.552Z,2.35
2016-12-22T12:40:02.990Z,2.38
2016-12-22T12:45:02.361Z,2.38
2016-12-22T12:50:02.749Z,2.38
2016-12-22T12:55:03.166Z,2.38
2016-12-22T13:00:02.594Z,2.41
2016-12-22T13:05:03.014Z,2.42
2016-12-22T13:10:02.463Z,2.41
2016-12-22T13:15:02.879Z,2.41
2016-12-22T13:20:02.349Z,2.42
2016-12-22T13:25:02.758Z,2.45
2016-12-22T13:30:03.182Z,2.46
2016-12-22T13:35:02.595Z,2.49
2016-12-22T13:40:02.948Z,2.53
2016-12-22T13:45:02.340Z,2.54
2016-12-22T13:50:02.754Z,2.54
2016-12-22T13:55:03.173Z,2.57
2016-12-22T14:00:02.565Z,2.57
2016-12-22T14:05:02.955Z,2.57
2016-12-22T14:10:02.367Z,2.57
2016-12-22T14:15:02.782Z,2.56
2016-12-22T14:20:02.303Z,2.57
2016-12-22T14:25:02.698Z,2.54
2016-12-22T14:30:03.117Z,2.5
2016-12-22T14:35:02.527Z,2.49
2016-12-22T14:40:02.952Z,2.45
2016-12-22T14:45:02.373Z,2.42
2016-12-22T14:50:02.774Z,2.4
2016-12-22T14:55:03.239Z,2.39
2016-12-22T15:00:02.702Z,2.37
2016-12-22T15:05:03.058Z,2.36
2016-12-22T15:10:02.509Z,2.35
2016-12-22T15:15:02.871Z,2.37
2016-12-22T15:20:02.381Z,2.4
2016-12-22T15:25:02.755Z,2.45
2016-12-22T15:30:03.258Z,2.49
2016-12-22T15:35:28.040Z,2.54
2016-12-22T15:40:04.327Z,2.56
2016-12-22T15:45:03.197Z,2.57
2016-12-22T15:50:02.732Z,2.64
2016-12-22T15:55:04.527Z,2.66
2016-12-22T16:00:02.899Z,2.69
2016-12-22T16:05:02.276Z,2.69
2016-12-22T16:10:02.656Z,2.67
2016-12-22T16:15:03.033Z,2.68
2016-12-22T16:20:03.017Z,2.69
2016-12-22T16:25:02.447Z,2.72
2016-12-22T16:30:13.193Z,2.71
2016-12-22T16:35:02.612Z,2.71
2016-12-22T16:45:03.036Z,2.73
2016-12-22T16:50:02.431Z,2.73
2016-12-22T16:55:02.840Z,2.74
2016-12-22T17:00:02.224Z,2.75
2016-12-22T17:05:03.051Z,2.75
2016-12-22T17:10:02.455Z,2.79
2016-12-22T17:15:16.405Z,2.82
2016-12-22T17:20:03.617Z,2.81
2016-12-22T17:30:03.537Z,2.85
2016-12-22T17:35:02.946Z,2.85
2016-12-22T17:40:02.902Z,2.84
2016-12-22T17:45:02.342Z,2.82
2016-12-22T17:50:02.697Z,2.79
2016-12-22T17:55:03.065Z,2.78
2016-12-22T18:00:02.455Z,2.74
2016-12-22T18:05:02.845Z,2.74
2016-12-22T18:10:02.289Z,2.74
2016-12-22T18:15:03.095Z,2.78
2016-12-22T18:20:02.589Z,2.82
2016-12-22T18:25:02.976Z,2.85
2016-12-22T18:30:02.524Z,2.85
2016-12-22T18:35:03.134Z,2.86
2016-12-22T18:40:02.522Z,2.87
2016-12-22T18:45:02.929Z,2.88
2016-12-22T18:50:02.306Z,2.87
2016-12-22T18:55:02.734Z,2.88
2016-12-22T19:00:03.185Z,2.9
2016-12-22T19:05:02.950Z,2.89
2016-12-22T19:10:04.360Z,2.9
2016-12-22T19:15:04.609Z,2.9
2016-12-22T19:20:02.693Z,2.93
2016-12-22T19:25:03.080Z,2.94
2016-12-22T19:30:02.547Z,2.95
2016-12-22T19:35:03.024Z,2.97
2016-12-22T19:40:02.386Z,2.97
2016-12-22T19:45:03.117Z,2.99
2016-12-22T19:50:02.578Z,2.99
2016-12-22T19:55:03.470Z,3
2016-12-22T20:00:02.889Z,3.01
2016-12-22T20:05:02.635Z,3.02
2016-12-22T20:10:03.070Z,3.04
2016-12-22T20:15:02.555Z,3.04
2016-12-22T20:20:03.089Z,3.03
2016-12-22T20:25:02.457Z,3.04
2016-12-22T20:30:02.848Z,3.03
2016-12-22T20:35:03.203Z,3.04
2016-12-22T20:40:03.380Z,2.99
2016-12-22T20:45:02.868Z,2.97
2016-12-22T20:50:02.297Z,2.97
2016-12-22T20:55:02.617Z,2.96
2016-12-22T21:00:02.972Z,2.95
2016-12-22T21:05:02.343Z,2.97
2016-12-22T21:10:02.734Z,2.96
2016-12-22T21:15:03.181Z,2.96
2016-12-22T21:20:02.664Z,2.96
2016-12-22T21:25:03.159Z,2.96
2016-12-22T21:30:02.565Z,3
2016-12-22T21:35:02.999Z,3.04
2016-12-22T21:40:02.420Z,3.1
2016-12-22T21:45:02.853Z,3.15
2016-12-22T21:50:02.347Z,3.19
2016-12-22T21:55:04.106Z,3.2
2016-12-22T22:00:02.582Z,3.23
2016-12-22T22:05:03.225Z,3.23
2016-12-22T22:10:02.731Z,3.24
2016-12-22T22:15:02.200Z,3.23
2016-12-22T22:20:02.664Z,3.23
2016-12-22T22:25:03.016Z,3.2
2016-12-22T22:30:02.392Z,3.21
2016-12-22T22:35:02.762Z,3.24
2016-12-22T22:40:03.198Z,3.24
2016-12-22T22:45:02.648Z,3.2
2016-12-22T22:50:02.991Z,3.18
2016-12-22T22:55:02.360Z,3.15
2016-12-22T23:00:02.831Z,3.15
2016-12-22T23:05:02.199Z,3.18
2016-12-22T23:10:02.587Z,3.19
2016-12-22T23:15:02.930Z,3.18
2016-12-22T23:20:02.401Z,3.19
2016-12-22T23:25:02.783Z,3.21
2016-12-22T23:30:03.147Z,3.21
2016-12-22T23:35:02.526Z,3.2
2016-12-22T23:40:02.899Z,3.21
2016-12-22T23:45:02.269Z,3.2
2016-12-22T23:50:02.653Z,3.2
2016-12-22T23:55:03.033Z,3.21
